Time;durP1;ratioP1;P1;durP2;ratioP2;P2;SDS_P1;SDS_P2;PMS_P1;PMS_P2;Temp;Humidity;BMP_temperature;BMP_pressure;BME280_temperature;BME280_humidity;BME280_pressure;Samples;Min_cycle;Max_cycle;Signal;HPM_P1;HPM_P2
2021/07/14 00:00:12;;;;;;;6.95;5.90;;;23.90;69.00;;;;;;5065464;28;20214;-74
2021/07/14 00:02:38;;;;;;;5.38;5.05;;;23.90;69.00;;;;;;5060953;28;20177;-74
2021/07/14 00:05:12;;;;;;;6.43;5.93;;;23.90;69.00;;;;;;5054772;28;20183;-74
2021/07/14 00:07:38;;;;;;;5.47;5.25;;;23.90;69.00;;;;;;5067505;28;20203;-74
2021/07/14 00:10:14;;;;;;;6.40;5.82;;;23.90;69.30;;;;;;5058074;28;20175;-74
2021/07/14 00:13:23;;;;;;;5.60;5.20;;;23.90;69.30;;;;;;5065088;28;20187;-74
2021/07/14 00:23:35;;;;;;;6.25;5.95;;;23.80;69.80;;;;;;5068670;28;20189;-74
2021/07/14 00:26:01;;;;;;;5.95;5.55;;;23.70;69.60;;;;;;5064053;28;20230;-74
2021/07/14 00:28:26;;;;;;;6.85;5.72;;;23.70;69.70;;;;;;5067283;28;20190;-74
2021/07/14 00:30:58;;;;;;;7.60;6.22;;;23.70;69.80;;;;;;5058067;28;20626;-74
2021/07/14 00:33:26;;;;;;;6.65;6.15;;;23.70;70.10;;;;;;5068738;28;20175;-74
2021/07/14 00:35:52;;;;;;;6.47;5.97;;;23.60;70.20;;;;;;5063373;28;20171;-74
2021/07/14 00:38:18;;;;;;;5.65;5.35;;;23.60;70.20;;;;;;5060167;28;20257;-74
2021/07/14 00:40:44;;;;;;;6.43;6.03;;;23.60;70.10;;;;;;5053655;28;20348;-74
2021/07/14 00:43:09;;;;;;;6.35;5.85;;;23.60;70.10;;;;;;5070297;28;20189;-74
2021/07/14 00:45:36;;;;;;;6.40;5.90;;;23.50;70.40;;;;;;5054307;28;20198;-73
2021/07/14 00:48:02;;;;;;;5.47;5.18;;;23.50;70.20;;;;;;5060150;28;20515;-74
2021/07/14 00:50:28;;;;;;;5.43;5.15;;;23.40;70.80;;;;;;5054146;28;20184;-74
2021/07/14 00:52:54;;;;;;;6.53;6.13;;;23.40;70.60;;;;;;5067125;28;20175;-74
2021/07/14 00:55:20;;;;;;;6.57;5.97;;;23.30;70.50;;;;;;5063821;28;20579;-73
2021/07/14 00:57:46;;;;;;;5.90;5.47;;;23.20;70.50;;;;;;5067580;28;20183;-73
2021/07/14 01:00:13;;;;;;;5.40;5.10;;;23.20;70.70;;;;;;5067842;28;20704;-73
2021/07/14 01:02:39;;;;;;;6.07;5.57;;;23.20;70.50;;;;;;5073327;28;20596;-74
2021/07/14 01:05:18;;;;;;;6.28;5.88;;;23.10;70.80;;;;;;5058774;28;20187;-74
2021/07/14 01:07:53;;;;;;;5.82;5.43;;;23.10;70.80;;;;;;5062714;28;20191;-74
2021/07/14 01:10:43;;;;;;;6.25;5.80;;;23.10;70.90;;;;;;5067635;28;20182;-74
2021/07/14 01:13:13;;;;;;;6.00;5.65;;;23.10;71.00;;;;;;5067783;28;20175;-74
2021/07/14 01:15:55;;;;;;;5.70;5.40;;;23.10;70.80;;;;;;5067465;28;20223;-74
2021/07/14 01:18:39;;;;;;;5.45;5.18;;;23.10;71.00;;;;;;5066474;28;20179;-74
2021/07/14 01:21:16;;;;;;;6.38;5.97;;;23.10;71.50;;;;;;5067481;28;20711;-74
2021/07/14 01:23:45;;;;;;;6.32;5.82;;;23.10;71.10;;;;;;5077607;28;20285;-74
2021/07/14 01:26:14;;;;;;;6.97;6.30;;;23.00;71.30;;;;;;5065136;28;20622;-74
2021/07/14 01:28:43;;;;;;;7.88;6.82;;;23.00;71.50;;;;;;5070760;28;20182;-74
2021/07/14 01:31:18;;;;;;;6.88;6.28;;;23.00;71.80;;;;;;5062498;28;20184;-74
2021/07/14 01:33:45;;;;;;;6.70;6.20;;;23.00;71.50;;;;;;5063338;28;20183;-74
2021/07/14 01:36:15;;;;;;;7.20;6.60;;;22.90;71.70;;;;;;5061636;28;20179;-74
2021/07/14 01:38:44;;;;;;;6.95;6.45;;;22.90;71.90;;;;;;5060540;28;20183;-73
2021/07/14 01:41:14;;;;;;;7.32;6.80;;;22.90;71.90;;;;;;5072276;28;20227;-73
2021/07/14 01:43:44;;;;;;;7.35;6.75;;;22.90;72.00;;;;;;5065526;28;20184;-73
2021/07/14 01:46:12;;;;;;;6.82;6.43;;;22.80;72.20;;;;;;5060111;28;20176;-73
2021/07/14 01:48:40;;;;;;;7.55;6.95;;;22.80;72.30;;;;;;5056635;28;20176;-74
2021/07/14 01:51:07;;;;;;;7.18;6.68;;;22.70;72.90;;;;;;5062035;28;20263;-74
2021/07/14 01:53:35;;;;;;;7.47;6.63;;;22.70;72.80;;;;;;5064931;28;20175;-75
2021/07/14 01:56:08;;;;;;;6.65;6.20;;;22.70;72.80;;;;;;5079191;28;20449;-74
2021/07/14 01:58:36;;;;;;;7.15;6.57;;;22.60;73.00;;;;;;5056895;28;20202;-75
2021/07/14 02:01:04;;;;;;;8.52;6.88;;;22.60;73.40;;;;;;5063869;28;20214;-74
2021/07/14 02:06:00;;;;;;;7.78;6.45;;;22.60;73.60;;;;;;5066857;28;20191;-74
2021/07/14 02:08:26;;;;;;;7.13;6.47;;;22.50;73.60;;;;;;5066528;28;20182;-74
2021/07/14 02:10:53;;;;;;;7.25;6.65;;;22.50;73.70;;;;;;5066485;28;20211;-74
2021/07/14 02:13:20;;;;;;;7.32;6.63;;;22.50;74.20;;;;;;5066415;28;20186;-75
2021/07/14 02:15:52;;;;;;;7.80;7.10;;;22.40;74.20;;;;;;5064974;28;20826;-74
2021/07/14 02:18:22;;;;;;;7.55;6.63;;;22.40;74.30;;;;;;5065258;28;20741;-74
2021/07/14 02:20:48;;;;;;;8.75;7.20;;;22.30;74.40;;;;;;5066517;28;20210;-75
2021/07/14 02:23:14;;;;;;;8.80;6.28;;;22.30;74.50;;;;;;5066183;28;20183;-74
2021/07/14 02:25:40;;;;;;;6.78;6.30;;;22.30;74.50;;;;;;5067668;28;20211;-74
2021/07/14 02:28:06;;;;;;;6.78;6.35;;;22.30;74.60;;;;;;5059599;28;20223;-73
2021/07/14 02:30:32;;;;;;;6.80;6.30;;;22.30;74.50;;;;;;5061173;28;20187;-73
2021/07/14 02:32:59;;;;;;;7.38;6.68;;;22.30;74.40;;;;;;5062946;28;20545;-73
2021/07/14 02:35:26;;;;;;;6.95;6.30;;;22.20;74.70;;;;;;5065274;28;20183;-73
2021/07/14 02:38:09;;;;;;;6.93;6.53;;;22.20;74.70;;;;;;5054353;28;20176;-73
2021/07/14 02:40:40;;;;;;;6.40;5.80;;;22.10;75.20;;;;;;5052927;28;20269;-73
2021/07/14 02:43:06;;;;;;;7.10;6.53;;;22.10;74.90;;;;;;5066656;28;20243;-74
2021/07/14 02:45:36;;;;;;;7.30;6.60;;;22.10;74.80;;;;;;5052671;28;20266;-73
2021/07/14 02:48:03;;;;;;;7.25;6.55;;;22.10;75.10;;;;;;5059954;28;20232;-73
2021/07/14 02:50:34;;;;;;;7.18;6.63;;;22.00;75.10;;;;;;5053158;28;20179;-73
2021/07/14 02:53:09;;;;;;;7.60;6.90;;;22.00;74.80;;;;;;5064837;28;20578;-73
2021/07/14 02:55:38;;;;;;;8.50;7.07;;;22.00;75.10;;;;;;5061298;28;20824;-73
2021/07/14 02:58:05;;;;;;;7.55;6.95;;;22.00;75.20;;;;;;5065820;28;20221;-73
2021/07/14 03:00:35;;;;;;;7.57;6.95;;;21.90;75.50;;;;;;5065823;28;20317;-74
2021/07/14 03:03:21;;;;;;;7.03;6.47;;;21.90;75.40;;;;;;5059096;28;20187;-73
2021/07/14 03:05:47;;;;;;;7.22;6.63;;;21.90;76.50;;;;;;5065622;28;20178;-74
2021/07/14 03:08:14;;;;;;;7.10;6.47;;;21.90;75.60;;;;;;5056271;28;20182;-74
2021/07/14 03:10:44;;;;;;;10.60;8.27;;;21.90;75.60;;;;;;5064410;28;20197;-74
2021/07/14 03:13:10;;;;;;;7.95;7.35;;;21.80;75.60;;;;;;5054659;28;20262;-74
2021/07/14 03:15:40;;;;;;;7.43;6.72;;;21.80;75.90;;;;;;5063014;28;20663;-74
2021/07/14 03:18:09;;;;;;;9.05;6.70;;;21.80;76.00;;;;;;5056187;28;20180;-73
2021/07/14 03:20:36;;;;;;;7.95;7.22;;;21.80;75.70;;;;;;5065478;28;20219;-74
2021/07/14 03:23:02;;;;;;;9.88;6.85;;;21.80;76.10;;;;;;5065714;28;20175;-74
2021/07/14 03:25:28;;;;;;;8.07;7.38;;;21.70;76.00;;;;;;5067443;28;20183;-74
2021/07/14 03:27:55;;;;;;;7.40;6.90;;;21.80;76.00;;;;;;5055399;28;20183;-74
2021/07/14 03:30:22;;;;;;;7.78;7.18;;;21.70;75.90;;;;;;5062530;28;20278;-74
2021/07/14 03:32:49;;;;;;;7.88;6.90;;;21.80;75.90;;;;;;5061212;28;20194;-74
2021/07/14 03:35:16;;;;;;;7.45;6.80;;;21.80;76.00;;;;;;5065371;28;20172;-74
2021/07/14 03:37:44;;;;;;;7.72;6.95;;;21.80;75.90;;;;;;5051576;28;20188;-74
2021/07/14 03:40:11;;;;;;;7.20;6.60;;;21.80;76.00;;;;;;5062902;28;20235;-74
2021/07/14 03:42:39;;;;;;;7.15;6.53;;;21.80;76.10;;;;;;5069649;28;20207;-74
2021/07/14 03:45:06;;;;;;;7.53;6.93;;;21.80;76.00;;;;;;5060698;28;20669;-74
2021/07/14 03:47:33;;;;;;;14.63;6.57;;;21.90;75.80;;;;;;5058300;28;20176;-74
2021/07/14 03:49:59;;;;;;;7.75;7.05;;;21.90;75.70;;;;;;5060370;28;20512;-74
2021/07/14 03:52:26;;;;;;;7.45;6.85;;;21.90;76.00;;;;;;5065510;28;20692;-74
2021/07/14 03:54:53;;;;;;;11.02;6.60;;;21.90;76.10;;;;;;5065480;28;20568;-74
2021/07/14 03:57:19;;;;;;;7.03;6.53;;;22.00;76.30;;;;;;5064303;28;20194;-74
2021/07/14 03:59:45;;;;;;;10.13;8.35;;;22.00;76.20;;;;;;5068718;28;20191;-74
2021/07/14 04:02:13;;;;;;;8.82;7.10;;;22.00;76.30;;;;;;5063141;28;20183;-74
2021/07/14 04:04:40;;;;;;;10.68;7.82;;;22.00;76.10;;;;;;5065369;28;20645;-74
2021/07/14 04:07:24;;;;;;;17.85;7.70;;;22.10;76.10;;;;;;5064962;28;20184;-74
2021/07/14 04:09:50;;;;;;;8.73;7.90;;;22.10;76.00;;;;;;5059994;28;20564;-75
2021/07/14 04:12:16;;;;;;;8.35;7.63;;;22.10;76.20;;;;;;5070272;28;20186;-74
2021/07/14 04:14:43;;;;;;;8.35;7.47;;;22.10;76.10;;;;;;5059858;28;20231;-74
2021/07/14 04:17:09;;;;;;;7.00;6.40;;;22.20;75.90;;;;;;5070784;28;20651;-74
2021/07/14 04:19:35;;;;;;;8.10;7.40;;;22.20;75.80;;;;;;5062529;28;20194;-74
2021/07/14 04:22:04;;;;;;;9.13;8.27;;;22.20;75.60;;;;;;5068609;28;20186;-74
2021/07/14 04:24:30;;;;;;;11.13;8.32;;;22.20;75.30;;;;;;5068492;28;20190;-75
2021/07/14 04:26:55;;;;;;;8.65;7.88;;;22.20;75.60;;;;;;5070860;28;20216;-74
2021/07/14 04:29:21;;;;;;;7.72;7.03;;;22.30;75.50;;;;;;5060170;28;20207;-75
2021/07/14 04:31:47;;;;;;;7.63;6.75;;;22.30;75.70;;;;;;5073478;28;20183;-74
2021/07/14 04:34:12;;;;;;;7.78;7.07;;;22.40;75.70;;;;;;5068515;28;20178;-75
2021/07/14 04:36:41;;;;;;;6.88;6.25;;;22.40;75.70;;;;;;5060434;28;20248;-74
2021/07/14 04:39:08;;;;;;;7.10;6.63;;;22.50;75.90;;;;;;5053516;28;20183;-74
2021/07/14 04:41:34;;;;;;;7.53;7.03;;;22.50;76.10;;;;;;5058613;28;20616;-74
2021/07/14 04:44:03;;;;;;;7.20;6.63;;;22.60;76.40;;;;;;5060275;28;20188;-74
2021/07/14 04:46:30;;;;;;;7.32;6.78;;;22.60;76.20;;;;;;5058143;28;20245;-75
2021/07/14 04:48:55;;;;;;;6.82;6.25;;;22.70;76.10;;;;;;5053612;28;20265;-74
2021/07/14 04:51:21;;;;;;;7.65;6.95;;;22.70;76.20;;;;;;5058233;28;20666;-74
2021/07/14 04:53:47;;;;;;;7.20;6.55;;;22.80;76.10;;;;;;5064760;28;20176;-74
2021/07/14 04:56:16;;;;;;;6.95;6.35;;;22.80;76.10;;;;;;5067110;28;20555;-75
2021/07/14 04:58:43;;;;;;;6.47;6.10;;;22.90;76.00;;;;;;5067987;28;20187;-74
2021/07/14 05:01:08;;;;;;;7.45;6.80;;;22.90;75.80;;;;;;5066302;28;20650;-75
2021/07/14 05:03:34;;;;;;;8.80;6.72;;;23.00;75.60;;;;;;5058213;28;20576;-74
2021/07/14 05:06:00;;;;;;;8.05;7.25;;;23.10;75.50;;;;;;5067988;28;20204;-74
2021/07/14 05:08:25;;;;;;;7.47;6.88;;;23.10;75.40;;;;;;5057649;28;20704;-74
2021/07/14 05:10:51;;;;;;;7.38;6.80;;;23.20;75.30;;;;;;5067602;28;20186;-74
2021/07/14 05:13:17;;;;;;;7.45;6.65;;;23.30;75.30;;;;;;5058059;28;20183;-74
2021/07/14 05:15:44;;;;;;;8.90;7.72;;;23.30;75.30;;;;;;5068144;28;20548;-75
2021/07/14 05:18:13;;;;;;;7.68;7.07;;;23.40;75.10;;;;;;5059790;28;20187;-74
2021/07/14 05:20:40;;;;;;;7.97;7.30;;;23.40;74.90;;;;;;5067218;28;20716;-74
2021/07/14 05:23:07;;;;;;;9.10;8.20;;;23.50;74.90;;;;;;5070688;28;20187;-74
2021/07/14 05:25:33;;;;;;;9.65;7.68;;;23.50;74.90;;;;;;5067901;28;21315;-74
2021/07/14 05:27:58;;;;;;;7.78;7.20;;;23.60;74.80;;;;;;5058771;28;20676;-75
2021/07/14 05:30:24;;;;;;;8.68;7.97;;;23.60;74.80;;;;;;5064105;28;20440;-74
2021/07/14 05:32:50;;;;;;;9.57;7.43;;;23.60;74.60;;;;;;5063025;28;20194;-74
2021/07/14 05:35:16;;;;;;;7.82;7.00;;;23.70;74.60;;;;;;5065767;28;20229;-74
2021/07/14 05:37:41;;;;;;;8.15;7.38;;;23.70;74.40;;;;;;5053627;28;20211;-75
2021/07/14 05:40:07;;;;;;;8.52;7.78;;;23.80;74.40;;;;;;5059258;28;20560;-74
2021/07/14 05:42:33;;;;;;;10.30;7.47;;;23.80;74.40;;;;;;5059636;28;20320;-74
2021/07/14 05:44:59;;;;;;;8.63;7.30;;;23.90;74.40;;;;;;5059573;28;20628;-75
2021/07/14 05:47:25;;;;;;;9.25;7.53;;;23.90;74.30;;;;;;5052603;28;20207;-75
2021/07/14 05:49:51;;;;;;;8.07;7.32;;;24.00;74.40;;;;;;5059386;28;20184;-75
2021/07/14 05:52:16;;;;;;;7.35;6.72;;;24.00;74.70;;;;;;5061150;28;20187;-75
2021/07/14 05:54:42;;;;;;;8.23;7.53;;;24.10;75.20;;;;;;5062458;28;20565;-74
2021/07/14 05:57:09;;;;;;;8.57;7.75;;;24.20;74.50;;;;;;5066425;28;20187;-75
2021/07/14 05:59:34;;;;;;;8.13;7.50;;;24.20;74.20;;;;;;5066391;28;20183;-75
2021/07/14 06:02:00;;;;;;;9.75;8.20;;;24.30;74.50;;;;;;5058199;28;20659;-75
2021/07/14 06:04:26;;;;;;;9.40;7.90;;;24.30;74.60;;;;;;5066236;28;20183;-75
2021/07/14 06:06:51;;;;;;;8.38;7.60;;;24.40;74.30;;;;;;5066694;28;20634;-75
2021/07/14 06:09:17;;;;;;;10.38;7.75;;;24.50;74.20;;;;;;5062038;28;20261;-75
2021/07/14 06:11:43;;;;;;;7.97;7.38;;;24.50;74.30;;;;;;5065001;28;20190;-75
2021/07/14 06:14:09;;;;;;;8.05;7.35;;;24.60;74.80;;;;;;5066369;28;20661;-74
2021/07/14 06:16:35;;;;;;;8.85;7.65;;;24.70;74.40;;;;;;5066225;28;20195;-74
2021/07/14 06:19:00;;;;;;;8.90;7.75;;;24.80;74.30;;;;;;5066235;28;20696;-75
2021/07/14 06:21:26;;;;;;;8.60;7.70;;;24.90;74.00;;;;;;5066201;28;20313;-75
2021/07/14 06:23:52;;;;;;;8.88;7.57;;;25.00;74.00;;;;;;5066263;28;20237;-75
2021/07/14 06:26:18;;;;;;;7.88;7.07;;;25.00;74.00;;;;;;5062226;28;20265;-75
2021/07/14 06:28:44;;;;;;;9.70;8.10;;;25.10;73.70;;;;;;5065349;28;20182;-75
2021/07/14 06:31:10;;;;;;;9.35;8.30;;;25.20;73.90;;;;;;5058637;28;20191;-74
2021/07/14 06:33:36;;;;;;;8.63;7.78;;;25.20;74.40;;;;;;5066428;28;20183;-74
2021/07/14 06:36:03;;;;;;;9.45;7.78;;;25.30;74.00;;;;;;5068285;28;20186;-74
2021/07/14 06:38:29;;;;;;;8.23;7.22;;;25.40;74.00;;;;;;5065672;28;21664;-74
2021/07/14 06:40:55;;;;;;;7.88;7.18;;;25.50;74.00;;;;;;5066008;28;20214;-74
2021/07/14 06:43:21;;;;;;;10.27;7.65;;;25.50;73.60;;;;;;5066539;28;20629;-74
2021/07/14 06:45:47;;;;;;;8.23;7.68;;;25.60;73.40;;;;;;5068460;28;20245;-73
2021/07/14 06:48:14;;;;;;;8.43;7.63;;;25.70;73.30;;;;;;5062222;28;20183;-74
2021/07/14 06:50:40;;;;;;;7.70;7.07;;;25.70;72.90;;;;;;5065865;28;20209;-75
2021/07/14 06:53:06;;;;;;;9.90;7.97;;;25.80;73.20;;;;;;5066216;28;20212;-75
2021/07/14 06:55:33;;;;;;;8.65;7.90;;;25.90;73.00;;;;;;5061616;28;20187;-74
2021/07/14 06:57:59;;;;;;;8.18;7.57;;;26.00;73.10;;;;;;5061241;28;20214;-74
2021/07/14 07:00:25;;;;;;;8.90;7.68;;;26.00;72.80;;;;;;5065535;28;20223;-75
2021/07/14 07:02:51;;;;;;;8.38;7.40;;;26.10;72.80;;;;;;5060446;28;20210;-75
2021/07/14 07:05:18;;;;;;;8.32;7.57;;;26.20;72.40;;;;;;5057769;28;20640;-75
2021/07/14 07:07:44;;;;;;;8.15;7.35;;;26.30;72.50;;;;;;5070723;28;20182;-74
2021/07/14 07:10:11;;;;;;;8.45;7.85;;;26.40;72.20;;;;;;5058329;28;20671;-75
2021/07/14 07:12:36;;;;;;;9.27;8.02;;;26.50;72.00;;;;;;5063463;28;20358;-75
2021/07/14 07:15:03;;;;;;;9.38;8.50;;;26.50;71.90;;;;;;5058340;28;20684;-74
2021/07/14 07:17:29;;;;;;;9.48;8.60;;;26.60;72.00;;;;;;5067169;28;20792;-75
2021/07/14 07:19:54;;;;;;;8.73;7.97;;;26.70;71.60;;;;;;5066491;28;20418;-75
2021/07/14 07:22:20;;;;;;;8.30;7.68;;;26.80;71.30;;;;;;5069603;28;20217;-75
2021/07/14 07:24:46;;;;;;;9.63;8.65;;;26.80;71.20;;;;;;5071106;28;20224;-74
2021/07/14 07:27:11;;;;;;;9.05;8.35;;;26.90;71.10;;;;;;5065289;28;20257;-75
2021/07/14 07:29:38;;;;;;;8.50;7.75;;;27.00;70.80;;;;;;5061699;28;20207;-75
2021/07/14 07:32:05;;;;;;;11.48;8.10;;;27.00;70.80;;;;;;5065972;28;20580;-75
2021/07/14 07:34:31;;;;;;;8.65;7.90;;;27.10;70.20;;;;;;5069695;28;20262;-75
2021/07/14 07:37:00;;;;;;;10.20;8.27;;;27.20;69.80;;;;;;5061608;28;20267;-75
2021/07/14 07:39:27;;;;;;;7.53;7.05;;;27.20;70.10;;;;;;5056967;28;20261;-75
2021/07/14 07:41:53;;;;;;;8.15;7.35;;;27.30;70.10;;;;;;5059898;28;20220;-74
2021/07/14 07:44:18;;;;;;;8.85;8.05;;;27.40;70.20;;;;;;5063225;28;20279;-75
2021/07/14 07:46:44;;;;;;;8.65;7.90;;;27.40;69.60;;;;;;5060378;28;20274;-75
2021/07/14 07:49:10;;;;;;;10.43;7.97;;;27.50;69.10;;;;;;5058166;28;20184;-74
2021/07/14 07:51:36;;;;;;;9.25;8.32;;;27.60;68.90;;;;;;5063036;28;20187;-74
2021/07/14 07:54:03;;;;;;;8.65;8.02;;;27.70;69.40;;;;;;5064695;28;20188;-74
2021/07/14 07:56:31;;;;;;;8.13;7.50;;;27.70;69.20;;;;;;5068598;28;20217;-75
2021/07/14 07:58:58;;;;;;;10.45;8.32;;;27.80;69.40;;;;;;5069175;28;20271;-74
2021/07/14 08:01:51;;;;;;;10.25;8.70;;;27.90;69.40;;;;;;5065376;28;20212;-74
2021/07/14 08:04:17;;;;;;;8.55;7.75;;;28.00;69.20;;;;;;5068146;28;20182;-75
2021/07/14 08:06:43;;;;;;;9.20;8.40;;;28.10;68.60;;;;;;5058204;28;20847;-74
2021/07/14 08:09:09;;;;;;;8.57;7.85;;;28.20;67.60;;;;;;5067534;28;20177;-74
2021/07/14 08:11:35;;;;;;;9.68;8.73;;;28.30;67.90;;;;;;5058353;28;20200;-74
2021/07/14 08:14:01;;;;;;;9.48;8.60;;;28.40;68.40;;;;;;5067678;28;20643;-74
2021/07/14 08:16:27;;;;;;;8.95;8.07;;;28.50;68.20;;;;;;5058300;28;20188;-75
2021/07/14 08:18:53;;;;;;;12.63;8.77;;;28.60;67.50;;;;;;5066646;28;20187;-75
2021/07/14 08:21:19;;;;;;;8.35;7.72;;;28.70;67.50;;;;;;5068620;28;20571;-75
2021/07/14 08:23:48;;;;;;;8.88;8.07;;;28.70;67.10;;;;;;5068645;28;20183;-75
2021/07/14 08:26:15;;;;;;;9.15;8.38;;;28.80;66.50;;;;;;5064045;28;20187;-74
2021/07/14 08:28:42;;;;;;;8.30;7.80;;;28.90;65.60;;;;;;5066402;28;20183;-74
2021/07/14 08:31:08;;;;;;;9.00;8.20;;;29.00;65.90;;;;;;5075135;28;20196;-75
2021/07/14 08:33:34;;;;;;;7.78;7.18;;;29.10;65.80;;;;;;5069144;28;20183;-75
2021/07/14 08:36:00;;;;;;;10.20;6.97;;;29.20;63.90;;;;;;5061646;28;20183;-75
2021/07/14 08:38:26;;;;;;;11.85;8.35;;;29.30;64.30;;;;;;5060108;28;20730;-75
2021/07/14 08:40:53;;;;;;;8.10;7.60;;;29.30;64.30;;;;;;5054400;28;20314;-75
2021/07/14 08:43:27;;;;;;;9.57;8.30;;;29.40;64.10;;;;;;5067733;28;20183;-75
2021/07/14 08:45:53;;;;;;;8.55;7.78;;;29.50;65.10;;;;;;5055948;28;20183;-75
2021/07/14 08:48:19;;;;;;;8.20;7.45;;;29.60;65.60;;;;;;5058545;28;20237;-75
2021/07/14 08:50:48;;;;;;;8.50;7.88;;;29.70;65.10;;;;;;5055746;28;20179;-75
2021/07/14 08:53:19;;;;;;;8.68;8.02;;;29.80;64.80;;;;;;5067356;28;20190;-75
2021/07/14 08:55:47;;;;;;;8.90;7.85;;;29.90;64.80;;;;;;5062031;28;20257;-75
2021/07/14 08:58:14;;;;;;;8.80;8.20;;;30.00;64.70;;;;;;5065103;28;20248;-75
2021/07/14 09:00:40;;;;;;;11.07;8.10;;;30.10;63.70;;;;;;5067565;28;20207;-74
2021/07/14 09:03:06;;;;;;;7.70;7.18;;;30.20;63.80;;;;;;5061581;28;20277;-75
2021/07/14 09:05:32;;;;;;;7.85;7.35;;;30.40;63.80;;;;;;5065207;28;20187;-75
2021/07/14 09:07:59;;;;;;;12.55;7.85;;;30.50;62.60;;;;;;5065291;28;20188;-75
2021/07/14 09:10:25;;;;;;;8.60;7.18;;;30.50;62.50;;;;;;5066223;28;20194;-75
2021/07/14 09:12:56;;;;;;;8.18;7.60;;;30.60;62.50;;;;;;5064365;28;20186;-75
2021/07/14 09:15:26;;;;;;;7.75;7.25;;;30.70;62.50;;;;;;5068868;28;20263;-75
2021/07/14 09:17:58;;;;;;;7.55;7.05;;;30.80;62.80;;;;;;5061288;28;20636;-75
2021/07/14 09:20:23;;;;;;;8.35;7.55;;;30.90;62.50;;;;;;5067337;28;20214;-75
2021/07/14 09:23:08;;;;;;;7.93;7.45;;;31.00;62.10;;;;;;5067364;28;20243;-75
2021/07/14 09:25:59;;;;;;;7.72;6.88;;;31.10;62.60;;;;;;5070293;28;20190;-75
2021/07/14 09:28:37;;;;;;;7.68;7.13;;;31.30;61.70;;;;;;5026863;28;20199;-75
2021/07/14 09:31:06;;;;;;;7.57;7.07;;;31.40;60.40;;;;;;5024935;28;20673;-75
2021/07/14 09:33:32;;;;;;;11.27;6.85;;;31.60;60.90;;;;;;5027107;28;20286;-74
2021/07/14 09:38:43;;;;;;;6.60;6.20;;;31.80;61.00;;;;;;5009777;28;21821;-74
2021/07/14 09:41:13;;;;;;;7.45;6.95;;;32.00;60.00;;;;;;5012359;28;20307;-74
2021/07/14 09:43:43;;;;;;;7.20;6.80;;;32.10;60.10;;;;;;5020192;28;20274;-73
2021/07/14 09:46:14;;;;;;;7.85;7.30;;;32.20;59.90;;;;;;5015100;28;20227;-74
2021/07/14 09:48:51;;;;;;;7.25;6.82;;;32.30;58.70;;;;;;5017013;28;20247;-75
2021/07/14 09:51:19;;;;;;;7.80;7.38;;;32.30;58.30;;;;;;5024664;28;20194;-74
2021/07/14 09:53:48;;;;;;;7.35;6.78;;;32.40;58.80;;;;;;5024288;28;20184;-74
2021/07/14 09:56:25;;;;;;;7.43;6.97;;;32.50;58.30;;;;;;5025359;28;20183;-74
2021/07/14 09:59:11;;;;;;;7.00;6.60;;;32.60;57.70;;;;;;5014556;28;20775;-73
2021/07/14 10:01:49;;;;;;;7.60;6.82;;;32.80;58.30;;;;;;5018792;28;20614;-73
2021/07/14 10:04:32;;;;;;;7.88;7.47;;;32.90;57.90;;;;;;5025196;28;20179;-73
2021/07/14 10:07:17;;;;;;;8.73;7.00;;;33.10;58.70;;;;;;5058517;28;20693;-74
2021/07/14 10:09:44;;;;;;;7.72;7.13;;;33.30;57.50;;;;;;5057187;28;20657;-74
2021/07/14 10:12:29;;;;;;;9.85;6.18;;;33.50;57.80;;;;;;5078990;28;20197;-74
2021/07/14 10:15:08;;;;;;;7.38;6.78;;;33.70;55.50;;;;;;5059673;28;20194;-74
2021/07/14 10:17:45;;;;;;;7.28;6.55;;;33.90;56.70;;;;;;5066558;28;20186;-74
2021/07/14 10:20:24;;;;;;;6.95;6.47;;;34.10;55.20;;;;;;5066301;28;20213;-74
2021/07/14 10:22:56;;;;;;;6.57;6.15;;;34.40;55.10;;;;;;5058336;28;20181;-74
2021/07/14 10:25:23;;;;;;;6.97;6.65;;;34.60;54.60;;;;;;5069082;28;20180;-74
2021/07/14 10:27:50;;;;;;;9.98;6.47;;;34.80;54.30;;;;;;5055492;28;20270;-74
2021/07/14 10:30:18;;;;;;;7.10;6.70;;;35.10;54.20;;;;;;5061049;28;20649;-74
2021/07/14 10:32:45;;;;;;;6.88;6.57;;;35.50;52.80;;;;;;5065633;28;20174;-74
2021/07/14 10:35:14;;;;;;;6.90;6.50;;;35.80;53.10;;;;;;5066494;28;20555;-74
2021/07/14 10:37:56;;;;;;;7.10;6.40;;;35.90;51.50;;;;;;5052535;28;20653;-74
2021/07/14 10:40:23;;;;;;;6.70;6.35;;;36.10;51.80;;;;;;5064364;28;20214;-74
2021/07/14 10:42:51;;;;;;;6.70;6.22;;;36.50;51.10;;;;;;5065941;28;20684;-74
2021/07/14 10:45:17;;;;;;;6.43;5.93;;;37.00;50.90;;;;;;5066331;28;20201;-74
2021/07/14 10:47:48;;;;;;;5.82;5.63;;;37.70;50.40;;;;;;5066267;28;20226;-74
2021/07/14 10:50:16;;;;;;;6.07;5.60;;;38.50;49.10;;;;;;5056106;28;20198;-74
2021/07/14 10:52:43;;;;;;;5.95;5.75;;;39.40;47.40;;;;;;5065469;28;20170;-75
2021/07/14 10:55:12;;;;;;;5.95;5.75;;;40.20;46.90;;;;;;5061835;28;20174;-75
2021/07/14 10:57:38;;;;;;;5.95;5.72;;;40.80;47.40;;;;;;5060155;28;20262;-75
2021/07/14 11:00:08;;;;;;;5.90;5.70;;;41.10;46.80;;;;;;5064360;28;20186;-75
2021/07/14 11:02:42;;;;;;;5.95;5.75;;;41.50;45.00;;;;;;5063151;28;20212;-74
2021/07/14 11:05:12;;;;;;;5.55;5.35;;;42.00;44.40;;;;;;5058933;28;20714;-75
2021/07/14 11:07:43;;;;;;;8.70;5.68;;;42.40;44.50;;;;;;5065741;28;20170;-75
2021/07/14 11:10:36;;;;;;;5.65;5.43;;;42.90;44.40;;;;;;5065879;28;20206;-75
2021/07/14 11:16:34;;;;;;;5.70;5.40;;;43.20;42.00;;;;;;5065998;28;20277;-75
2021/07/14 11:19:14;;;;;;;5.82;5.72;;;43.40;41.80;;;;;;5065589;28;20178;-74
2021/07/14 11:22:03;;;;;;;5.15;4.90;;;43.50;42.70;;;;;;5065469;28;20599;-75
2021/07/14 11:24:46;;;;;;;5.30;5.10;;;43.80;41.30;;;;;;5058289;28;20185;-75
2021/07/14 11:27:34;;;;;;;5.40;5.20;;;44.10;42.10;;;;;;5061973;28;20209;-75
2021/07/14 11:30:02;;;;;;;4.80;4.63;;;44.40;41.30;;;;;;5027434;28;20463;-75
2021/07/14 11:32:34;;;;;;;5.10;4.90;;;44.60;41.50;;;;;;5016970;28;20199;-75
2021/07/14 11:35:26;;;;;;;5.10;4.90;;;45.00;41.50;;;;;;5026310;28;20637;-75
2021/07/14 11:37:51;;;;;;;5.60;5.30;;;45.20;40.40;;;;;;5011056;28;20185;-75
2021/07/14 11:40:20;;;;;;;5.50;5.13;;;45.00;41.30;;;;;;5013518;28;20214;-75
2021/07/14 11:43:10;;;;;;;5.82;5.50;;;44.50;41.40;;;;;;5018065;28;20199;-75
2021/07/14 11:45:43;;;;;;;5.95;5.45;;;44.20;40.10;;;;;;5022850;28;20242;-75
2021/07/14 11:48:26;;;;;;;7.47;5.38;;;43.90;40.70;;;;;;5014445;28;20189;-74
2021/07/14 11:50:58;;;;;;;5.63;5.15;;;44.00;40.10;;;;;;5010198;28;20906;-75
2021/07/14 11:53:34;;;;;;;5.70;5.53;;;44.00;41.60;;;;;;5020707;28;20275;-75
2021/07/14 11:56:12;;;;;;;5.90;5.38;;;44.20;42.30;;;;;;5019410;28;20221;-75
2021/07/14 11:58:57;;;;;;;5.25;4.95;;;44.60;40.20;;;;;;5012924;28;20633;-75
2021/07/14 12:01:24;;;;;;;6.22;4.47;;;45.20;40.40;;;;;;5021988;28;20236;-75
2021/07/14 12:04:00;;;;;;;5.38;5.07;;;45.60;40.90;;;;;;5025320;28;20805;-75
2021/07/14 12:06:55;;;;;;;6.95;6.57;;;46.00;39.30;;;;;;5031129;28;20198;-75
2021/07/14 12:09:21;;;;;;;6.20;5.90;;;46.40;39.10;;;;;;5064274;28;20202;-75
2021/07/14 12:11:49;;;;;;;5.07;4.97;;;46.70;39.10;;;;;;5068509;28;20210;-75
2021/07/14 12:14:22;;;;;;;5.90;5.55;;;46.80;38.90;;;;;;5068639;28;20193;-75
2021/07/14 12:16:59;;;;;;;5.65;5.43;;;46.60;40.20;;;;;;5068807;28;20184;-76
2021/07/14 12:19:27;;;;;;;4.95;4.70;;;46.50;38.40;;;;;;5068912;28;20187;-75
2021/07/14 12:21:52;;;;;;;4.65;4.43;;;46.60;38.20;;;;;;5068566;28;20217;-75
2021/07/14 12:24:35;;;;;;;4.93;4.82;;;46.80;39.60;;;;;;5068808;28;20178;-75
2021/07/14 12:27:03;;;;;;;5.35;5.05;;;47.00;38.60;;;;;;5069194;28;20205;-75
2021/07/14 12:29:30;;;;;;;4.97;4.88;;;47.00;38.50;;;;;;5059028;28;20179;-75
2021/07/14 12:31:56;;;;;;;4.85;4.43;;;46.50;39.10;;;;;;5066301;28;20232;-75
2021/07/14 12:34:29;;;;;;;5.07;4.88;;;46.30;40.60;;;;;;5068535;28;20768;-76
2021/07/14 12:36:57;;;;;;;4.57;4.47;;;46.30;39.50;;;;;;5060002;28;20202;-75
2021/07/14 12:39:28;;;;;;;4.97;4.80;;;46.40;40.70;;;;;;5054196;28;20577;-75
2021/07/14 12:41:55;;;;;;;4.65;4.47;;;46.70;39.20;;;;;;5065987;28;20218;-76
2021/07/14 12:44:22;;;;;;;5.22;4.78;;;47.10;38.50;;;;;;5060677;28;20206;-75
2021/07/14 12:46:48;;;;;;;5.60;5.32;;;47.40;39.10;;;;;;5056548;28;20182;-75
2021/07/14 12:49:20;;;;;;;5.60;5.22;;;47.40;38.50;;;;;;5055459;28;20218;-76
2021/07/14 12:52:08;;;;;;;5.30;5.20;;;47.50;39.00;;;;;;5058320;28;20181;-75
2021/07/14 12:54:36;;;;;;;5.00;4.80;;;47.60;37.50;;;;;;5063897;28;20396;-75
2021/07/14 12:57:19;;;;;;;4.82;4.63;;;47.70;38.30;;;;;;5067955;28;20185;-76
2021/07/14 13:00:07;;;;;;;4.47;4.38;;;47.60;37.80;;;;;;5065057;28;20205;-75
2021/07/14 13:02:42;;;;;;;5.30;5.00;;;47.60;36.90;;;;;;5064323;28;20221;-75
2021/07/14 13:05:17;;;;;;;5.18;4.97;;;47.00;39.20;;;;;;5060406;28;20196;-75
2021/07/14 13:07:49;;;;;;;5.05;4.78;;;46.80;39.30;;;;;;5068105;28;20174;-75
2021/07/14 13:10:17;;;;;;;4.63;4.53;;;47.20;38.60;;;;;;5067808;28;20209;-75
2021/07/14 13:12:46;;;;;;;5.10;4.75;;;47.50;38.20;;;;;;5067767;28;20213;-75